createdAt,value
2017-10-24T00:00:20.927Z,18.10
2017-10-24T00:02:48.497Z,20.00
2017-10-24T00:05:16.160Z,18.80
2017-10-24T00:07:43.782Z,19.00
2017-10-24T00:10:11.404Z,20.92
2017-10-24T00:12:39.173Z,20.75
2017-10-24T00:15:06.875Z,21.30
2017-10-24T00:17:34.491Z,21.83
2017-10-24T00:20:02.181Z,21.37
2017-10-24T00:22:29.842Z,21.65
2017-10-24T00:24:57.521Z,22.27
2017-10-24T00:27:25.927Z,21.12
2017-10-24T00:29:54.498Z,19.10
2017-10-24T00:32:22.133Z,20.90
2017-10-24T00:34:50.476Z,19.98
2017-10-24T00:37:18.109Z,18.95
2017-10-24T00:39:45.715Z,21.20
2017-10-24T00:42:13.356Z,20.60
2017-10-24T00:44:40.970Z,23.90
2017-10-24T00:47:08.565Z,21.10
2017-10-24T00:49:36.238Z,21.90
2017-10-24T00:52:03.879Z,21.67
2017-10-24T00:54:31.464Z,21.25
2017-10-24T00:56:59.889Z,23.08
2017-10-24T00:59:27.681Z,24.10
2017-10-24T01:01:55.348Z,23.85
2017-10-24T01:04:22.993Z,22.83
2017-10-24T01:06:50.621Z,23.45
2017-10-24T01:09:19.044Z,22.55
2017-10-24T01:11:46.668Z,21.83
2017-10-24T01:14:14.312Z,20.37
2017-10-24T01:16:41.950Z,19.65
2017-10-24T01:19:09.562Z,20.62
2017-10-24T01:21:37.990Z,21.90
2017-10-24T01:24:05.629Z,20.88
2017-10-24T01:26:33.293Z,19.37
2017-10-24T01:29:01.689Z,18.05
2017-10-24T01:31:29.424Z,18.08
2017-10-24T01:33:57.106Z,19.67
2017-10-24T01:36:24.740Z,18.10
2017-10-24T01:38:52.497Z,18.48
2017-10-24T01:41:20.937Z,19.02
2017-10-24T01:43:48.509Z,18.70
2017-10-24T01:46:16.201Z,17.10
2017-10-24T01:48:44.659Z,17.23
2017-10-24T01:51:13.196Z,17.20
2017-10-24T01:53:40.855Z,17.70
2017-10-24T01:56:08.562Z,20.27
2017-10-24T01:58:36.237Z,20.27
2017-10-24T02:01:04.680Z,19.75
2017-10-24T02:03:32.501Z,18.50
2017-10-24T02:06:00.116Z,21.00
2017-10-24T02:08:27.845Z,21.30
2017-10-24T02:10:55.476Z,20.27
2017-10-24T02:13:23.105Z,18.60
2017-10-24T02:15:50.812Z,19.75
2017-10-24T02:18:18.446Z,21.02
2017-10-24T02:20:46.101Z,22.15
2017-10-24T02:23:13.801Z,20.70
2017-10-24T02:25:41.410Z,20.20
2017-10-24T02:28:09.092Z,23.12
2017-10-24T02:30:37.493Z,19.65
2017-10-24T02:33:05.184Z,21.55
2017-10-24T02:35:32.787Z,22.90
2017-10-24T02:38:00.417Z,20.80
2017-10-24T02:40:28.049Z,21.05
2017-10-24T02:42:55.713Z,20.73
2017-10-24T02:45:24.251Z,20.33
2017-10-24T02:47:54.360Z,22.65
2017-10-24T02:50:22.022Z,20.80
2017-10-24T02:52:49.665Z,23.40
2017-10-24T02:55:17.299Z,20.88
2017-10-24T02:57:44.941Z,21.65
2017-10-24T03:00:12.571Z,20.00
2017-10-24T03:02:40.211Z,19.62
2017-10-24T03:05:07.909Z,20.95
2017-10-24T03:07:35.536Z,20.45
2017-10-24T03:10:03.214Z,20.08
2017-10-24T03:12:30.878Z,22.10
2017-10-24T03:14:58.572Z,21.65
2017-10-24T03:17:26.301Z,20.65
2017-10-24T03:19:53.939Z,22.55
2017-10-24T03:22:21.591Z,22.67
2017-10-24T03:24:49.292Z,23.23
2017-10-24T03:27:17.000Z,22.45
2017-10-24T03:29:44.707Z,25.58
2017-10-24T03:32:12.466Z,24.75
2017-10-24T03:34:40.126Z,22.23
2017-10-24T03:37:07.783Z,21.73
2017-10-24T03:39:35.988Z,24.25
2017-10-24T03:42:03.669Z,23.20
2017-10-24T03:44:31.324Z,23.77
2017-10-24T03:46:58.955Z,24.65
2017-10-24T03:49:26.599Z,24.50
2017-10-24T03:51:54.239Z,23.30
2017-10-24T03:54:21.939Z,21.67
2017-10-24T03:56:49.616Z,20.98
2017-10-24T03:59:17.212Z,20.12
2017-10-24T04:01:44.884Z,18.77
2017-10-24T04:04:12.504Z,21.85
2017-10-24T04:06:40.150Z,19.80
2017-10-24T04:09:08.522Z,19.10
2017-10-24T04:11:36.187Z,19.52
2017-10-24T04:14:03.801Z,20.15
2017-10-24T04:16:31.424Z,18.02
2017-10-24T04:18:59.040Z,18.08
2017-10-24T04:21:26.672Z,18.70
2017-10-24T04:23:54.312Z,18.52
2017-10-24T04:26:21.946Z,17.92
2017-10-24T04:28:49.595Z,19.33
2017-10-24T04:31:17.274Z,18.02
2017-10-24T04:33:45.719Z,18.05
2017-10-24T04:36:13.351Z,17.48
2017-10-24T04:38:41.045Z,17.95
2017-10-24T04:41:09.456Z,18.23
2017-10-24T04:43:37.181Z,18.85
2017-10-24T04:46:04.888Z,17.45
2017-10-24T04:48:32.579Z,17.35
2017-10-24T04:51:00.233Z,16.77
2017-10-24T04:53:27.872Z,17.37
2017-10-24T04:55:55.514Z,18.25
2017-10-24T04:58:23.150Z,17.73
2017-10-24T05:00:50.868Z,15.95
2017-10-24T05:03:18.550Z,19.30
2017-10-24T05:05:46.211Z,17.83
2017-10-24T05:08:13.875Z,17.00
2017-10-24T05:10:41.532Z,17.67
2017-10-24T05:13:09.952Z,19.00
2017-10-24T05:15:37.586Z,15.90
2017-10-24T05:18:05.186Z,18.10
2017-10-24T05:20:32.817Z,17.23
2017-10-24T05:23:01.267Z,17.08
2017-10-24T05:25:28.897Z,15.02
2017-10-24T05:27:56.506Z,16.02
2017-10-24T05:30:24.082Z,16.12
2017-10-24T05:32:52.502Z,15.68
2017-10-24T05:35:20.120Z,15.93
2017-10-24T05:37:48.538Z,14.85
2017-10-24T05:40:16.228Z,14.77
2017-10-24T05:42:43.962Z,13.30
2017-10-24T05:45:11.626Z,15.05
2017-10-24T05:47:39.246Z,13.15
2017-10-24T05:50:07.608Z,15.05
2017-10-24T05:52:36.037Z,14.13
2017-10-24T05:55:03.725Z,13.93
2017-10-24T05:57:31.370Z,12.57
2017-10-24T05:59:59.013Z,13.95
2017-10-24T06:02:27.439Z,14.30
2017-10-24T06:04:55.144Z,14.73
2017-10-24T06:07:23.546Z,14.27
2017-10-24T06:09:51.200Z,12.30
2017-10-24T06:12:18.781Z,12.18
2017-10-24T06:14:46.449Z,11.15
2017-10-24T06:17:14.089Z,12.57
2017-10-24T06:19:41.760Z,12.40
2017-10-24T06:22:09.431Z,12.05
2017-10-24T06:24:37.823Z,12.10
2017-10-24T06:27:05.438Z,11.50
2017-10-24T06:29:33.165Z,10.82
2017-10-24T06:32:01.557Z,11.10
2017-10-24T06:34:29.149Z,10.40
2017-10-24T06:36:56.772Z,10.32
2017-10-24T06:39:24.426Z,11.40
2017-10-24T06:41:52.068Z,10.27
2017-10-24T06:44:19.706Z,10.43
2017-10-24T06:46:47.329Z,9.77
2017-10-24T06:49:14.907Z,7.93
2017-10-24T06:51:42.554Z,11.00
2017-10-24T06:54:10.957Z,9.23
2017-10-24T06:56:38.593Z,10.18
2017-10-24T06:59:06.285Z,10.50
2017-10-24T07:01:33.919Z,9.02
2017-10-24T07:04:02.299Z,9.85
2017-10-24T07:06:30.775Z,9.00
2017-10-24T07:08:58.441Z,9.25
2017-10-24T07:11:26.232Z,11.10
2017-10-24T07:13:53.894Z,10.23
2017-10-24T07:16:21.485Z,8.98
2017-10-24T07:18:49.466Z,9.67
2017-10-24T07:21:17.112Z,10.90
2017-10-24T07:23:45.478Z,10.77
2017-10-24T07:26:13.108Z,10.82
2017-10-24T07:28:40.725Z,12.00
2017-10-24T07:31:08.583Z,13.23
2017-10-24T07:33:36.925Z,12.88
2017-10-24T07:36:04.558Z,12.20
2017-10-24T07:38:33.069Z,11.10
2017-10-24T07:41:00.742Z,11.02
2017-10-24T07:43:28.386Z,12.15
2017-10-24T07:45:57.187Z,9.73
2017-10-24T07:48:24.856Z,11.63
2017-10-24T07:50:52.542Z,10.40
2017-10-24T07:53:20.157Z,10.85
2017-10-24T07:55:47.760Z,10.02
2017-10-24T07:58:16.098Z,11.03
2017-10-24T08:00:43.796Z,12.90
2017-10-24T08:03:12.208Z,10.43
2017-10-24T08:05:39.801Z,11.23
2017-10-24T08:08:07.499Z,10.85
2017-10-24T08:10:35.074Z,11.70
2017-10-24T08:13:03.507Z,10.63
2017-10-24T08:15:31.140Z,11.27
2017-10-24T08:17:58.711Z,10.05
2017-10-24T08:20:26.701Z,10.17
2017-10-24T08:22:54.637Z,10.57
2017-10-24T08:25:22.500Z,10.37
2017-10-24T08:27:50.136Z,10.40
2017-10-24T08:30:17.754Z,10.80
2017-10-24T08:32:46.219Z,10.40
2017-10-24T08:35:13.860Z,11.63
2017-10-24T08:37:41.518Z,12.20
2017-10-24T08:40:09.146Z,10.82
2017-10-24T08:42:36.782Z,10.88
2017-10-24T08:45:04.475Z,11.50
2017-10-24T08:47:32.893Z,12.93
2017-10-24T08:50:00.530Z,12.20
2017-10-24T08:52:28.189Z,10.80
2017-10-24T08:54:55.791Z,10.17
2017-10-24T08:57:24.306Z,11.53
2017-10-24T08:59:51.939Z,13.17
2017-10-24T09:02:19.594Z,9.82
2017-10-24T09:04:47.245Z,12.80
2017-10-24T09:07:27.408Z,11.70
2017-10-24T09:09:54.993Z,12.00
2017-10-24T09:12:22.725Z,12.97
2017-10-24T09:14:50.370Z,11.57
2017-10-24T09:17:38.131Z,12.00
2017-10-24T09:20:09.681Z,12.60
2017-10-24T09:22:37.395Z,13.27
2017-10-24T09:25:05.091Z,13.13
2017-10-24T09:27:32.699Z,13.80
2017-10-24T09:30:00.322Z,13.83
2017-10-24T09:32:33.627Z,10.27
2017-10-24T09:35:01.263Z,12.20
2017-10-24T09:37:28.854Z,10.27
2017-10-24T09:39:56.428Z,10.47
2017-10-24T09:42:24.111Z,10.97
2017-10-24T09:44:51.733Z,9.93
2017-10-24T09:47:19.381Z,9.57
2017-10-24T09:49:58.215Z,10.40
2017-10-24T09:52:25.880Z,10.80
2017-10-24T09:54:53.497Z,10.20
2017-10-24T09:57:21.070Z,9.70
2017-10-24T09:59:49.462Z,10.57
2017-10-24T10:02:17.047Z,10.17
2017-10-24T10:04:44.726Z,8.60
2017-10-24T10:07:12.362Z,9.57
2017-10-24T10:09:39.980Z,11.30
2017-10-24T10:12:09.231Z,17.23
2017-10-24T10:14:36.842Z,9.87
2017-10-24T10:17:04.522Z,11.30
2017-10-24T10:19:32.956Z,14.53
2017-10-24T10:22:00.552Z,9.43
2017-10-24T10:24:43.866Z,11.03
2017-10-24T10:27:11.542Z,11.50
2017-10-24T10:29:39.282Z,9.80
2017-10-24T10:32:06.887Z,11.07
2017-10-24T10:34:34.714Z,10.03
2017-10-24T10:37:02.359Z,10.03
2017-10-24T10:39:30.060Z,9.53
2017-10-24T10:41:58.467Z,8.70
2017-10-24T10:44:26.125Z,7.83
2017-10-24T10:46:53.992Z,9.83
2017-10-24T10:49:21.949Z,7.87
2017-10-24T10:51:49.673Z,9.70
2017-10-24T10:54:17.275Z,9.83
2017-10-24T10:56:44.868Z,8.60
2017-10-24T10:59:12.485Z,9.37
2017-10-24T11:01:40.225Z,9.10
2017-10-24T11:04:07.789Z,9.60
2017-10-24T11:06:35.461Z,10.70
2017-10-24T11:09:03.135Z,10.40
2017-10-24T11:11:30.723Z,9.57
2017-10-24T11:13:58.353Z,8.70
2017-10-24T11:16:25.973Z,10.27
2017-10-24T11:18:54.377Z,8.07
2017-10-24T11:21:22.675Z,8.87
2017-10-24T11:23:50.332Z,10.37
2017-10-24T11:26:17.919Z,10.60
2017-10-24T11:28:45.524Z,9.23
2017-10-24T11:31:13.930Z,11.53
2017-10-24T11:33:41.494Z,9.13
2017-10-24T11:36:09.432Z,8.40
2017-10-24T11:38:37.793Z,7.53
2017-10-24T11:41:06.264Z,8.10
2017-10-24T11:46:07.714Z,6.83
2017-10-24T11:48:35.437Z,5.83
2017-10-24T11:51:03.021Z,5.30
2017-10-24T11:53:30.630Z,6.50
2017-10-24T11:55:59.001Z,6.10
2017-10-24T11:58:27.390Z,5.97
2017-10-24T12:00:55.760Z,5.30
2017-10-24T12:03:23.372Z,6.00
2017-10-24T12:05:50.994Z,3.93
2017-10-24T12:08:19.461Z,4.00
2017-10-24T12:10:47.086Z,4.17
2017-10-24T12:13:15.523Z,4.30
2017-10-24T12:15:43.443Z,4.07
2017-10-24T12:18:11.020Z,4.03
2017-10-24T12:20:39.591Z,4.73
2017-10-24T12:23:07.168Z,4.60
2017-10-24T12:25:34.786Z,3.40
2017-10-24T12:28:02.403Z,2.53
2017-10-24T12:30:30.039Z,3.80
2017-10-24T12:32:57.678Z,3.03
2017-10-24T12:35:25.314Z,3.97
2017-10-24T12:37:52.950Z,3.23
2017-10-24T12:40:21.297Z,3.60
2017-10-24T12:42:48.920Z,3.80
2017-10-24T12:45:19.393Z,3.50
2017-10-24T12:47:47.118Z,2.97
2017-10-24T12:53:18.752Z,3.70
2017-10-24T12:55:47.884Z,4.53
2017-10-24T12:58:17.553Z,4.60
2017-10-24T13:00:46.073Z,4.27
2017-10-24T13:03:13.785Z,3.83
2017-10-24T13:05:41.403Z,4.80
2017-10-24T13:08:09.098Z,21.63
2017-10-24T13:10:36.775Z,4.73
2017-10-24T13:13:04.404Z,5.80
2017-10-24T13:15:32.101Z,5.10
2017-10-24T13:17:59.764Z,4.40
2017-10-24T13:20:28.179Z,6.00
2017-10-24T13:22:55.872Z,5.30
2017-10-24T13:25:23.499Z,5.43
2017-10-24T13:27:51.166Z,4.80
2017-10-24T13:30:18.805Z,5.57
2017-10-24T13:32:46.417Z,5.50
2017-10-24T13:35:14.006Z,5.40
2017-10-24T13:37:41.637Z,6.00
2017-10-24T13:40:09.203Z,4.33
2017-10-24T13:42:36.906Z,6.33
2017-10-24T13:45:04.526Z,5.40
2017-10-24T13:47:32.158Z,7.77
2017-10-24T13:49:59.763Z,5.60
2017-10-24T13:52:27.428Z,5.77
2017-10-24T13:54:55.824Z,6.67
2017-10-24T13:57:24.196Z,5.90
2017-10-24T13:59:52.621Z,7.83
2017-10-24T14:02:20.203Z,6.73
2017-10-24T14:04:53.433Z,5.97
2017-10-24T14:07:26.682Z,7.60
2017-10-24T14:09:59.813Z,6.93
2017-10-24T14:12:28.248Z,6.00
2017-10-24T14:14:55.833Z,6.70
2017-10-24T14:17:23.437Z,5.67
2017-10-24T14:19:51.008Z,7.50
2017-10-24T14:22:18.633Z,6.33
2017-10-24T14:24:46.235Z,6.87
2017-10-24T14:27:14.025Z,6.73
2017-10-24T14:29:41.613Z,8.03
2017-10-24T14:32:09.195Z,8.63
2017-10-24T14:34:37.102Z,7.40
2017-10-24T14:37:04.648Z,8.07
2017-10-24T14:39:32.229Z,8.50
2017-10-24T14:42:00.660Z,7.40
2017-10-24T14:44:28.253Z,8.50
2017-10-24T14:46:55.904Z,8.13
2017-10-24T14:49:23.470Z,9.30
2017-10-24T14:51:51.056Z,8.40
2017-10-24T14:54:19.447Z,8.30
2017-10-24T14:56:47.827Z,7.80
2017-10-24T14:59:16.216Z,8.50
2017-10-24T15:01:43.833Z,9.40
2017-10-24T15:04:11.451Z,10.30
2017-10-24T15:06:39.117Z,9.50
2017-10-24T15:09:06.698Z,12.17
2017-10-24T15:11:34.301Z,11.10
2017-10-24T15:14:02.681Z,10.57
2017-10-24T15:16:30.343Z,9.80
2017-10-24T15:18:58.752Z,11.77
2017-10-24T15:21:26.326Z,12.50
2017-10-24T15:23:53.905Z,11.67
2017-10-24T15:26:21.662Z,14.00
2017-10-24T15:28:49.259Z,14.70
2017-10-24T15:31:17.675Z,14.00
2017-10-24T15:33:45.364Z,14.30
2017-10-24T15:36:13.777Z,15.17
2017-10-24T15:38:41.362Z,14.20
2017-10-24T15:41:09.416Z,14.77
2017-10-24T15:43:37.877Z,15.43
2017-10-24T15:46:05.523Z,16.90
2017-10-24T15:48:33.167Z,16.00
2017-10-24T15:51:01.654Z,15.60
2017-10-24T15:53:29.266Z,15.47
2017-10-24T15:55:57.607Z,19.70
2017-10-24T15:58:25.285Z,17.70
2017-10-24T16:00:52.872Z,15.90
2017-10-24T16:03:21.296Z,17.50
2017-10-24T16:05:48.972Z,18.73
2017-10-24T16:08:16.630Z,20.00
2017-10-24T16:10:44.294Z,17.63
2017-10-24T16:13:11.901Z,19.43
2017-10-24T16:15:39.548Z,19.10
2017-10-24T16:18:07.906Z,19.83
2017-10-24T16:20:35.489Z,22.17
2017-10-24T16:23:03.923Z,21.33
2017-10-24T16:25:31.589Z,21.10
2017-10-24T16:27:59.961Z,23.53
2017-10-24T16:30:27.640Z,22.80
2017-10-24T16:32:55.248Z,25.93
2017-10-24T16:35:22.846Z,24.63
2017-10-24T16:37:50.454Z,25.20
2017-10-24T16:40:18.846Z,25.27
2017-10-24T16:42:46.499Z,21.80
2017-10-24T16:45:14.235Z,24.63
2017-10-24T16:47:42.938Z,23.03
2017-10-24T16:50:10.607Z,20.80
2017-10-24T16:52:38.235Z,21.40
2017-10-24T16:55:05.872Z,20.83
2017-10-24T16:57:33.557Z,22.33
2017-10-24T17:00:01.185Z,20.80
2017-10-24T17:02:28.786Z,20.73
2017-10-24T17:04:56.447Z,23.13
2017-10-24T17:07:24.055Z,20.27
2017-10-24T17:09:52.404Z,24.97
2017-10-24T17:12:20.163Z,25.70
2017-10-24T17:14:47.805Z,19.27
2017-10-24T17:17:15.528Z,34.53
2017-10-24T17:19:43.125Z,29.33
2017-10-24T17:22:10.763Z,43.40
2017-10-24T17:24:38.373Z,29.50
2017-10-24T17:27:06.025Z,21.10
2017-10-24T17:29:33.672Z,18.20
2017-10-24T17:32:01.282Z,21.50
2017-10-24T17:34:29.802Z,24.83
2017-10-24T17:36:57.434Z,22.13
2017-10-24T17:39:25.806Z,21.83
2017-10-24T17:41:54.159Z,20.97
2017-10-24T17:44:22.583Z,19.23
2017-10-24T17:46:50.227Z,20.90
2017-10-24T17:49:17.855Z,19.10
2017-10-24T17:51:45.562Z,23.13
2017-10-24T17:54:13.154Z,22.27
2017-10-24T17:56:40.793Z,25.40
2017-10-24T17:59:08.422Z,24.47
2017-10-24T18:01:36.819Z,26.10
2017-10-24T18:04:04.451Z,23.60
2017-10-24T18:06:32.238Z,23.23
2017-10-24T18:08:59.917Z,23.83
2017-10-24T18:11:28.727Z,25.97
2017-10-24T18:13:56.352Z,26.23
2017-10-24T18:16:24.298Z,26.83
2017-10-24T18:18:51.922Z,28.53
2017-10-24T18:21:19.545Z,28.40
2017-10-24T18:23:47.946Z,29.97
2017-10-24T18:26:16.300Z,30.60
2017-10-24T18:28:44.012Z,30.70
2017-10-24T18:31:11.668Z,32.60
2017-10-24T18:33:39.288Z,34.10
2017-10-24T18:36:07.659Z,30.80
2017-10-24T18:38:36.040Z,32.63
2017-10-24T18:41:04.396Z,33.43
2017-10-24T18:43:32.159Z,34.20
2017-10-24T18:46:00.413Z,31.23
2017-10-24T18:48:32.215Z,32.43
2017-10-24T18:50:59.813Z,33.60
2017-10-24T18:53:27.445Z,34.20
2017-10-24T18:55:55.864Z,32.93
2017-10-24T18:58:23.517Z,34.07
2017-10-24T19:00:51.148Z,34.77
2017-10-24T19:03:18.914Z,33.47
2017-10-24T19:05:46.553Z,33.50
2017-10-24T19:08:14.144Z,35.00
2017-10-24T19:10:41.800Z,30.80
2017-10-24T19:13:09.466Z,32.63
2017-10-24T19:15:37.121Z,33.50
2017-10-24T19:18:04.753Z,34.10
2017-10-24T19:20:32.419Z,32.43
2017-10-24T19:23:00.020Z,33.87
2017-10-24T19:25:27.699Z,30.10
2017-10-24T19:27:55.370Z,33.23
2017-10-24T19:30:23.810Z,33.10
2017-10-24T19:32:51.397Z,34.87
2017-10-24T19:35:19.014Z,35.80
2017-10-24T19:37:46.647Z,33.83
2017-10-24T19:40:14.264Z,33.33
2017-10-24T19:42:41.915Z,30.97
2017-10-24T19:45:09.774Z,31.57
2017-10-24T19:47:38.130Z,32.40
2017-10-24T19:50:05.727Z,32.43
2017-10-24T19:52:33.401Z,31.23
2017-10-24T19:55:01.016Z,31.73
2017-10-24T19:57:28.613Z,31.97
2017-10-24T19:59:56.260Z,29.33
2017-10-24T20:02:24.655Z,29.87
2017-10-24T20:04:52.400Z,29.47
2017-10-24T20:07:20.046Z,28.53
2017-10-24T20:09:47.623Z,29.10
2017-10-24T20:12:16.026Z,28.80
2017-10-24T20:14:43.733Z,26.77
2017-10-24T20:17:11.350Z,30.33
2017-10-24T20:19:39.038Z,28.37
2017-10-24T20:22:06.657Z,27.97
2017-10-24T20:24:34.272Z,30.43
2017-10-24T20:27:01.914Z,29.23
2017-10-24T20:29:29.495Z,29.53
2017-10-24T20:31:57.168Z,29.10
2017-10-24T20:34:24.760Z,28.40
2017-10-24T20:36:52.502Z,29.20
2017-10-24T20:39:20.219Z,27.33
2017-10-24T20:41:47.838Z,27.30
2017-10-24T20:44:15.484Z,28.27
2017-10-24T20:46:43.887Z,25.63
2017-10-24T20:49:12.302Z,26.13
2017-10-24T20:51:39.946Z,23.67
2017-10-24T20:54:07.663Z,24.70
2017-10-24T20:56:35.345Z,25.63
2017-10-24T20:59:05.486Z,23.87
2017-10-24T21:01:33.156Z,24.03
2017-10-24T21:04:00.793Z,23.80
2017-10-24T21:06:28.446Z,18.80
2017-10-24T21:08:56.889Z,22.40
2017-10-24T21:11:24.559Z,22.80
2017-10-24T21:13:53.084Z,21.40
2017-10-24T21:16:20.708Z,21.80
2017-10-24T21:18:49.166Z,20.30
2017-10-24T21:21:16.742Z,20.37
2017-10-24T21:23:45.038Z,18.60
2017-10-24T21:26:12.651Z,19.90
2017-10-24T21:28:40.250Z,19.03
2017-10-24T21:31:07.858Z,16.37
2017-10-24T21:33:35.604Z,18.57
2017-10-24T21:36:03.233Z,17.57
2017-10-24T21:38:30.972Z,17.17
2017-10-24T21:40:58.594Z,16.90
2017-10-24T21:43:26.177Z,16.27
2017-10-24T21:45:53.782Z,15.90
2017-10-24T21:48:21.396Z,16.67
2017-10-24T21:50:49.036Z,16.60
2017-10-24T21:53:16.637Z,15.17
2017-10-24T21:55:44.267Z,14.27
2017-10-24T21:58:11.873Z,13.97
2017-10-24T22:00:51.450Z,14.83
2017-10-24T22:03:19.882Z,13.97
2017-10-24T22:05:47.517Z,15.00
2017-10-24T22:08:15.307Z,12.73
2017-10-24T22:10:42.916Z,14.20
2017-10-24T22:13:11.339Z,13.30
2017-10-24T22:15:38.955Z,12.57
2017-10-24T22:18:06.618Z,13.23
2017-10-24T22:20:34.993Z,13.30
2017-10-24T22:23:03.480Z,13.03
2017-10-24T22:25:31.874Z,13.20
2017-10-24T22:27:59.462Z,12.63
2017-10-24T22:30:27.045Z,11.40
2017-10-24T22:32:54.661Z,14.07
2017-10-24T22:35:22.262Z,12.70
2017-10-24T22:37:49.914Z,13.10
2017-10-24T22:40:17.589Z,11.30
2017-10-24T22:42:45.199Z,11.87
2017-10-24T22:45:12.852Z,13.57
2017-10-24T22:47:41.271Z,11.47
2017-10-24T22:50:08.866Z,12.33
2017-10-24T22:52:36.560Z,13.70
2017-10-24T22:55:04.219Z,12.67
2017-10-24T22:57:31.780Z,12.90
2017-10-24T23:00:00.844Z,11.70
2017-10-24T23:02:28.457Z,10.00
2017-10-24T23:04:56.105Z,12.70
2017-10-24T23:07:23.737Z,12.47
2017-10-24T23:09:52.144Z,11.40
2017-10-24T23:12:19.751Z,12.07
2017-10-24T23:14:47.345Z,13.30
2017-10-24T23:17:14.937Z,13.10
2017-10-24T23:19:42.518Z,14.20
2017-10-24T23:22:10.584Z,12.70
2017-10-24T23:24:38.284Z,13.67
2017-10-24T23:27:05.937Z,11.60
2017-10-24T23:29:33.539Z,12.37
2017-10-24T23:32:01.144Z,13.13
2017-10-24T23:34:28.788Z,12.90
2017-10-24T23:36:56.379Z,12.20
2017-10-24T23:39:24.071Z,13.20
2017-10-24T23:41:52.456Z,13.60
2017-10-24T23:44:20.859Z,13.60
2017-10-24T23:46:48.486Z,13.43
2017-10-24T23:49:16.851Z,11.67
2017-10-24T23:51:44.516Z,12.23
2017-10-24T23:54:12.135Z,13.07
2017-10-24T23:56:39.769Z,14.97
2017-10-24T23:59:07.554Z,14.23
